createdAt,value
2018-12-19T00:01:50.306Z,1.36
2018-12-19T00:07:53.650Z,1.43
2018-12-19T00:13:56.968Z,1.45
2018-12-19T00:20:00.293Z,1.25
2018-12-19T00:26:03.637Z,1.37
2018-12-19T00:32:06.989Z,1.22
2018-12-19T00:38:10.346Z,1.12
2018-12-19T00:44:13.722Z,1.04
2018-12-19T00:50:17.073Z,1.01
2018-12-19T00:56:20.400Z,0.93
2018-12-19T01:02:23.756Z,0.93
2018-12-19T01:08:32.915Z,0.94
2018-12-19T01:14:36.258Z,0.96
2018-12-19T01:20:39.618Z,0.89
2018-12-19T01:26:42.969Z,0.92
2018-12-19T01:32:46.303Z,1.10
2018-12-19T01:38:49.778Z,1.02
2018-12-19T01:44:53.094Z,1.15
2018-12-19T01:50:56.442Z,1.47
2018-12-19T01:56:59.841Z,1.50
2018-12-19T02:03:03.175Z,1.61
2018-12-19T02:09:07.168Z,1.70
2018-12-19T02:15:10.510Z,1.95
2018-12-19T02:21:13.834Z,2.02
2018-12-19T02:27:17.171Z,2.08
2018-12-19T02:33:20.635Z,2.12
2018-12-19T02:39:23.984Z,1.95
2018-12-19T02:45:27.304Z,2.01
2018-12-19T02:51:30.648Z,2.20
2018-12-19T02:57:33.973Z,2.02
2018-12-19T03:03:37.302Z,2.07
2018-12-19T03:09:43.093Z,2.05
2018-12-19T03:15:46.077Z,2.06
2018-12-19T03:21:49.408Z,2.05
2018-12-19T03:27:52.778Z,2.07
2018-12-19T03:33:56.128Z,1.94
2018-12-19T03:39:59.466Z,2.02
2018-12-19T03:46:02.820Z,2.07
2018-12-19T03:52:06.189Z,2.14
2018-12-19T03:58:09.534Z,2.29
2018-12-19T04:04:12.863Z,2.07
2018-12-19T04:10:16.191Z,2.35
2018-12-19T04:16:19.520Z,2.15
2018-12-19T04:22:22.880Z,2.20
2018-12-19T04:28:26.223Z,2.22
2018-12-19T04:34:29.562Z,2.22
2018-12-19T04:40:32.926Z,2.38
2018-12-19T04:46:36.273Z,2.22
2018-12-19T04:52:40.193Z,2.28
2018-12-19T04:58:43.554Z,2.39
2018-12-19T05:04:46.889Z,2.29
2018-12-19T05:10:50.238Z,2.47
2018-12-19T05:16:53.610Z,2.64
2018-12-19T05:22:56.933Z,2.69
2018-12-19T05:29:00.300Z,2.65
2018-12-19T05:35:05.013Z,2.52
2018-12-19T05:41:08.362Z,2.65
2018-12-19T05:47:12.211Z,2.64
2018-12-19T05:53:15.543Z,2.63
2018-12-19T05:59:18.883Z,2.73
2018-12-19T06:05:22.246Z,2.75
2018-12-19T06:11:25.592Z,2.78
2018-12-19T06:17:28.913Z,2.82
2018-12-19T06:23:32.252Z,2.76
2018-12-19T06:29:35.621Z,3.02
2018-12-19T06:35:38.982Z,2.84
2018-12-19T06:41:42.318Z,2.80
2018-12-19T06:47:45.654Z,2.75
2018-12-19T06:53:49.063Z,2.84
2018-12-19T06:59:52.419Z,3.04
2018-12-19T07:05:55.737Z,2.98
2018-12-19T07:11:59.074Z,3.12
2018-12-19T07:18:02.700Z,3.14
2018-12-19T07:24:06.182Z,3.13
2018-12-19T07:30:09.596Z,3.10
2018-12-19T07:36:13.064Z,3.26
2018-12-19T07:42:16.408Z,3.23
2018-12-19T07:48:19.768Z,2.99
2018-12-19T07:54:23.111Z,3.16
2018-12-19T08:00:27.577Z,3.04
2018-12-19T08:06:31.235Z,3.18
2018-12-19T08:12:36.138Z,3.02
2018-12-19T08:18:39.854Z,3.03
2018-12-19T08:24:43.197Z,3.23
2018-12-19T08:30:46.543Z,3.10
2018-12-19T08:36:50.149Z,3.40
2018-12-19T08:42:53.490Z,3.39
2018-12-19T08:48:56.853Z,3.53
2018-12-19T08:55:00.191Z,3.67
2018-12-19T09:01:03.701Z,3.69
2018-12-19T09:07:07.036Z,3.86
2018-12-19T09:13:10.376Z,3.66
2018-12-19T09:19:13.703Z,3.73
2018-12-19T09:25:17.048Z,3.73
2018-12-19T09:31:20.398Z,3.84
2018-12-19T09:37:23.719Z,4.17
2018-12-19T09:43:27.067Z,4.15
2018-12-19T09:49:30.389Z,4.32
2018-12-19T09:55:33.717Z,4.48
2018-12-19T10:01:37.055Z,4.60
2018-12-19T10:07:40.390Z,4.65
2018-12-19T10:13:43.750Z,4.65
2018-12-19T10:19:47.102Z,4.84
2018-12-19T10:25:52.535Z,4.97
2018-12-19T10:31:55.880Z,4.76
2018-12-19T10:37:59.228Z,4.98
2018-12-19T10:44:02.964Z,4.90
2018-12-19T10:50:08.240Z,4.81
2018-12-19T10:56:11.591Z,4.76
2018-12-19T11:02:14.919Z,4.77
2018-12-19T11:08:18.259Z,4.95
2018-12-19T11:14:21.599Z,5.03
2018-12-19T11:20:24.944Z,5.12
2018-12-19T11:26:28.578Z,5.24
2018-12-19T11:32:31.931Z,5.19
2018-12-19T11:38:35.262Z,5.25
2018-12-19T11:44:38.578Z,5.15
2018-12-19T11:50:41.923Z,5.13
2018-12-19T11:56:45.252Z,5.16
2018-12-19T12:02:48.626Z,5.28
2018-12-19T12:08:52.190Z,5.59
2018-12-19T12:14:55.530Z,5.66
2018-12-19T12:20:58.870Z,5.67
2018-12-19T12:27:02.206Z,5.66
2018-12-19T12:33:05.521Z,5.62
2018-12-19T12:39:08.865Z,5.63
2018-12-19T12:45:12.223Z,5.78
2018-12-19T12:51:16.222Z,6.37
2018-12-19T12:57:19.554Z,6.61
2018-12-19T13:03:22.879Z,6.59
2018-12-19T13:09:26.232Z,6.79
2018-12-19T13:15:38.949Z,6.63
2018-12-19T13:21:42.312Z,6.54
2018-12-19T13:27:45.657Z,6.37
2018-12-19T13:33:49.009Z,6.33
2018-12-19T13:39:52.372Z,6.34
2018-12-19T13:45:55.710Z,6.36
2018-12-19T13:51:59.041Z,6.38
2018-12-19T13:58:07.005Z,6.26
2018-12-19T14:04:07.764Z,6.37
2018-12-19T14:10:11.098Z,6.34
2018-12-19T14:16:14.441Z,6.29
2018-12-19T14:22:17.872Z,6.19
2018-12-19T14:28:21.267Z,6.08
2018-12-19T14:34:24.598Z,6.08
2018-12-19T14:40:27.925Z,6.03
2018-12-19T14:46:31.255Z,6.20
2018-12-19T14:52:34.588Z,6.02
2018-12-19T14:58:37.941Z,5.84
2018-12-19T15:04:41.291Z,5.78
2018-12-19T15:10:44.718Z,5.74
2018-12-19T15:16:48.113Z,5.54
2018-12-19T15:22:51.446Z,5.51
2018-12-19T15:28:54.786Z,5.23
2018-12-19T15:34:58.128Z,4.91
2018-12-19T15:41:01.462Z,4.74
2018-12-19T15:47:04.796Z,4.60
2018-12-19T15:53:08.127Z,4.48
2018-12-19T15:59:11.480Z,4.47
2018-12-19T16:05:14.820Z,4.55
2018-12-19T16:11:18.162Z,4.45
2018-12-19T16:17:21.501Z,4.28
2018-12-19T16:23:24.875Z,4.34
2018-12-19T16:29:28.205Z,4.30
2018-12-19T16:35:31.534Z,4.44
2018-12-19T16:41:34.949Z,4.42
2018-12-19T16:47:38.296Z,4.49
2018-12-19T16:53:41.752Z,4.71
2018-12-19T16:59:45.091Z,4.82
2018-12-19T17:05:48.432Z,5.18
2018-12-19T17:11:51.791Z,4.94
2018-12-19T17:17:55.144Z,5.06
2018-12-19T17:23:58.492Z,5.05
2018-12-19T17:30:01.832Z,4.99
2018-12-19T17:36:05.832Z,5.00
2018-12-19T17:42:09.179Z,4.85
2018-12-19T17:48:12.535Z,4.62
2018-12-19T17:54:15.889Z,4.54
2018-12-19T18:00:19.240Z,4.49
2018-12-19T18:06:22.579Z,4.48
2018-12-19T18:12:25.904Z,4.49
2018-12-19T18:18:29.233Z,4.48
2018-12-19T18:24:32.559Z,4.61
2018-12-19T18:30:35.904Z,4.63
2018-12-19T18:36:39.235Z,4.88
2018-12-19T18:42:42.582Z,4.90
2018-12-19T18:48:45.938Z,4.78
2018-12-19T18:54:49.275Z,4.78
2018-12-19T19:00:52.752Z,4.93
2018-12-19T19:06:56.154Z,4.83
2018-12-19T19:12:59.612Z,4.94
2018-12-19T19:19:02.951Z,4.76
2018-12-19T19:25:06.391Z,4.75
2018-12-19T19:31:09.727Z,4.76
2018-12-19T19:37:13.061Z,4.63
2018-12-19T19:43:16.389Z,4.66
2018-12-19T19:49:19.717Z,4.67
2018-12-19T19:55:23.160Z,4.70
2018-12-19T20:01:26.516Z,4.78
2018-12-19T20:07:29.848Z,4.80
2018-12-19T20:13:33.627Z,4.81
2018-12-19T20:19:37.086Z,4.80
2018-12-19T20:25:40.437Z,4.88
2018-12-19T20:31:43.799Z,4.91
2018-12-19T20:37:47.153Z,4.98
2018-12-19T20:43:50.501Z,4.94
2018-12-19T20:49:53.861Z,4.99
2018-12-19T20:56:03.574Z,5.06
2018-12-19T21:02:03.410Z,5.14
2018-12-19T21:08:06.966Z,5.19
2018-12-19T21:14:10.357Z,5.10
2018-12-19T21:20:13.697Z,5.08
2018-12-19T21:26:17.035Z,4.79
2018-12-19T21:32:20.399Z,4.75
2018-12-19T21:38:23.739Z,4.51
2018-12-19T21:44:27.083Z,4.64
2018-12-19T21:50:31.355Z,4.91
2018-12-19T21:56:34.695Z,4.88
2018-12-19T22:02:38.028Z,4.86
2018-12-19T22:08:41.474Z,5.10
2018-12-19T22:14:44.808Z,4.91
2018-12-19T22:20:48.150Z,5.04
2018-12-19T22:26:51.471Z,4.95
2018-12-19T22:32:54.808Z,5.05
2018-12-19T22:38:58.151Z,5.18
2018-12-19T22:45:01.712Z,5.20
2018-12-19T22:51:05.249Z,4.91
2018-12-19T22:57:08.623Z,4.99
2018-12-19T23:03:12.246Z,4.92
2018-12-19T23:09:15.676Z,4.99
2018-12-19T23:15:20.300Z,5.19
2018-12-19T23:21:24.733Z,5.19
2018-12-19T23:27:28.274Z,5.20
2018-12-19T23:33:31.671Z,5.20
2018-12-19T23:39:35.010Z,5.16
2018-12-19T23:45:38.398Z,5.05
2018-12-19T23:51:41.806Z,5.10
2018-12-19T23:57:45.218Z,5.16
